createdAt,value
2017-10-10T00:00:58.889Z,13.00
2017-10-10T00:03:25.066Z,13.10
2017-10-10T00:05:54.898Z,13.20
2017-10-10T00:08:21.033Z,13.20
2017-10-10T00:10:47.919Z,13.10
2017-10-10T00:13:14.082Z,13.40
2017-10-10T00:15:40.197Z,13.40
2017-10-10T00:18:06.450Z,13.30
2017-10-10T00:20:32.571Z,13.20
2017-10-10T00:22:58.722Z,13.20
2017-10-10T00:25:25.577Z,13.40
2017-10-10T00:27:52.603Z,13.30
2017-10-10T00:30:18.737Z,13.30
2017-10-10T00:32:44.856Z,14.00
2017-10-10T00:35:13.143Z,13.30
2017-10-10T00:37:39.471Z,13.30
2017-10-10T00:40:06.582Z,13.30
2017-10-10T00:42:32.907Z,13.30
2017-10-10T00:44:59.249Z,13.20
2017-10-10T00:47:25.584Z,13.20
2017-10-10T00:49:52.022Z,13.00
2017-10-10T00:52:18.343Z,13.00
2017-10-10T00:54:44.697Z,13.00
2017-10-10T00:57:11.112Z,12.90
2017-10-10T00:59:38.219Z,13.00
2017-10-10T01:02:04.553Z,12.60
2017-10-10T01:04:30.952Z,12.90
2017-10-10T01:06:58.898Z,12.90
2017-10-10T01:09:25.241Z,13.00
2017-10-10T01:11:51.572Z,13.00
2017-10-10T01:14:18.010Z,13.10
2017-10-10T01:16:45.064Z,13.00
2017-10-10T01:19:11.390Z,12.90
2017-10-10T01:21:37.714Z,13.00
2017-10-10T01:24:04.050Z,13.10
2017-10-10T01:26:30.428Z,13.00
2017-10-10T01:28:56.812Z,13.40
2017-10-10T01:31:23.169Z,13.00
2017-10-10T01:33:49.513Z,13.10
2017-10-10T01:36:15.883Z,13.10
2017-10-10T01:38:43.357Z,13.00
2017-10-10T01:41:10.458Z,13.20
2017-10-10T01:43:36.798Z,13.20
2017-10-10T01:46:06.022Z,13.00
2017-10-10T01:48:35.999Z,13.00
2017-10-10T01:51:02.358Z,13.00
2017-10-10T01:53:28.695Z,13.00
2017-10-10T01:55:55.094Z,13.10
2017-10-10T01:58:21.498Z,13.10
2017-10-10T02:00:47.843Z,13.00
2017-10-10T02:03:14.343Z,13.10
2017-10-10T02:05:41.435Z,13.20
2017-10-10T02:08:21.214Z,13.20
2017-10-10T02:10:47.578Z,13.20
2017-10-10T02:13:20.235Z,13.10
2017-10-10T02:15:46.629Z,13.20
2017-10-10T02:18:13.062Z,13.20
2017-10-10T02:21:00.197Z,13.20
2017-10-10T02:23:26.586Z,13.10
2017-10-10T02:25:52.961Z,13.30
2017-10-10T02:28:19.322Z,13.30
2017-10-10T02:30:45.665Z,13.30
2017-10-10T02:33:12.120Z,13.90
2017-10-10T02:35:38.446Z,13.30
2017-10-10T02:38:04.834Z,13.20
2017-10-10T02:40:31.269Z,13.20
2017-10-10T02:42:58.417Z,13.30
2017-10-10T02:45:24.842Z,13.30
2017-10-10T02:47:51.203Z,13.20
2017-10-10T02:50:17.557Z,13.30
2017-10-10T02:52:48.502Z,13.40
2017-10-10T02:55:15.598Z,13.40
2017-10-10T02:57:41.938Z,13.50
2017-10-10T03:00:08.398Z,13.30
2017-10-10T03:02:35.182Z,13.40
2017-10-10T03:05:01.638Z,13.30
2017-10-10T03:07:28.025Z,13.50
2017-10-10T03:09:54.375Z,13.40
2017-10-10T03:12:20.747Z,13.30
2017-10-10T03:14:47.863Z,13.40
2017-10-10T03:17:14.248Z,13.30
2017-10-10T03:19:40.580Z,13.40
2017-10-10T03:22:06.950Z,13.60
2017-10-10T03:24:33.295Z,13.50
2017-10-10T03:26:59.625Z,13.60
2017-10-10T03:29:25.948Z,14.00
2017-10-10T03:31:52.274Z,13.50
2017-10-10T03:34:19.386Z,13.60
2017-10-10T03:36:45.745Z,13.60
2017-10-10T03:39:12.096Z,13.50
2017-10-10T03:41:38.421Z,13.90
2017-10-10T03:44:04.757Z,13.70
2017-10-10T03:46:31.133Z,13.60
2017-10-10T03:48:58.197Z,13.60
2017-10-10T03:51:24.555Z,13.60
2017-10-10T03:53:50.888Z,13.80
2017-10-10T03:56:17.326Z,13.80
2017-10-10T03:58:46.569Z,13.50
2017-10-10T04:01:12.900Z,13.40
2017-10-10T04:03:39.329Z,13.60
2017-10-10T04:06:06.436Z,13.50
2017-10-10T04:08:35.485Z,13.40
2017-10-10T04:11:01.845Z,13.50
2017-10-10T04:13:28.969Z,13.60
2017-10-10T04:15:55.282Z,13.60
2017-10-10T04:18:22.414Z,13.80
2017-10-10T04:20:48.737Z,13.80
2017-10-10T04:23:15.124Z,13.80
2017-10-10T04:25:41.491Z,13.80
2017-10-10T04:28:08.586Z,13.70
2017-10-10T04:30:35.218Z,13.70
2017-10-10T04:33:02.299Z,13.60
2017-10-10T04:35:28.656Z,13.60
2017-10-10T04:37:55.172Z,13.50
2017-10-10T04:40:22.236Z,13.50
2017-10-10T04:42:48.589Z,13.60
2017-10-10T04:45:14.931Z,13.70
2017-10-10T04:47:41.281Z,13.70
2017-10-10T04:50:07.648Z,14.10
2017-10-10T04:52:34.717Z,13.80
2017-10-10T04:55:01.798Z,13.80
2017-10-10T04:57:28.902Z,13.80
2017-10-10T04:59:55.246Z,13.70
2017-10-10T05:02:21.545Z,13.90
2017-10-10T05:04:47.878Z,13.60
2017-10-10T05:07:14.229Z,13.70
2017-10-10T05:09:40.659Z,13.70
2017-10-10T05:12:07.805Z,13.50
2017-10-10T05:14:34.643Z,13.50
2017-10-10T05:17:01.746Z,13.60
2017-10-10T05:19:28.134Z,13.90
2017-10-10T05:21:54.506Z,14.00
2017-10-10T05:24:20.955Z,13.80
2017-10-10T05:26:48.762Z,13.70
2017-10-10T05:29:16.535Z,13.70
2017-10-10T05:31:42.883Z,13.80
2017-10-10T05:34:09.257Z,13.80
2017-10-10T05:36:35.686Z,13.70
2017-10-10T05:39:02.178Z,13.60
2017-10-10T05:41:28.560Z,13.60
2017-10-10T05:43:54.876Z,13.60
2017-10-10T05:46:21.285Z,13.60
2017-10-10T05:48:47.659Z,13.50
2017-10-10T05:51:14.657Z,13.60
2017-10-10T05:53:42.078Z,13.80
2017-10-10T05:56:08.410Z,13.70
2017-10-10T05:58:34.857Z,13.70
2017-10-10T06:01:01.361Z,13.90
2017-10-10T06:03:27.693Z,13.80
2017-10-10T06:05:54.018Z,13.90
2017-10-10T06:08:20.355Z,13.90
2017-10-10T06:10:46.699Z,13.80
2017-10-10T06:13:13.035Z,13.50
2017-10-10T06:15:39.383Z,13.50
2017-10-10T06:18:05.742Z,13.50
2017-10-10T06:20:32.234Z,13.60
2017-10-10T06:22:58.564Z,13.70
2017-10-10T06:25:25.211Z,13.80
2017-10-10T06:27:51.571Z,13.90
2017-10-10T06:30:17.933Z,13.80
2017-10-10T06:32:44.262Z,13.80
2017-10-10T06:35:10.693Z,13.80
2017-10-10T06:37:37.082Z,14.40
2017-10-10T06:40:03.401Z,13.60
2017-10-10T06:42:30.468Z,13.80
2017-10-10T06:44:56.807Z,13.90
2017-10-10T06:47:25.860Z,14.00
2017-10-10T06:49:51.993Z,14.00
2017-10-10T06:52:18.128Z,13.80
2017-10-10T06:54:45.557Z,13.90
2017-10-10T06:57:12.588Z,14.10
2017-10-10T06:59:38.753Z,14.10
2017-10-10T07:02:05.863Z,13.90
2017-10-10T07:04:32.713Z,13.90
2017-10-10T07:06:58.867Z,13.90
2017-10-10T07:09:25.013Z,13.90
2017-10-10T07:11:51.972Z,14.10
2017-10-10T07:14:18.836Z,13.90
2017-10-10T07:16:44.969Z,13.90
2017-10-10T07:19:12.172Z,13.90
2017-10-10T07:21:40.183Z,13.90
2017-10-10T07:24:06.825Z,14.00
2017-10-10T07:26:33.019Z,14.10
2017-10-10T07:28:59.987Z,14.00
2017-10-10T07:31:26.190Z,14.00
2017-10-10T07:33:55.007Z,14.00
2017-10-10T07:36:21.182Z,14.10
2017-10-10T07:38:47.944Z,14.10
2017-10-10T07:41:14.202Z,13.90
2017-10-10T07:43:41.113Z,14.00
2017-10-10T07:46:07.221Z,14.30
2017-10-10T07:48:34.082Z,14.20
2017-10-10T07:51:01.086Z,14.20
2017-10-10T07:53:27.342Z,14.30
2017-10-10T07:55:53.457Z,14.20
2017-10-10T07:58:19.594Z,14.20
2017-10-10T08:00:46.479Z,14.20
2017-10-10T08:03:12.805Z,14.20
2017-10-10T08:05:39.710Z,14.40
2017-10-10T08:08:05.880Z,14.40
2017-10-10T08:10:36.011Z,14.30
2017-10-10T08:13:02.118Z,14.40
2017-10-10T08:15:29.145Z,14.60
2017-10-10T08:17:55.323Z,14.50
2017-10-10T08:20:22.197Z,14.30
2017-10-10T08:22:48.364Z,14.30
2017-10-10T08:25:16.490Z,14.20
2017-10-10T08:27:42.633Z,14.30
2017-10-10T08:30:08.794Z,14.40
2017-10-10T08:32:34.958Z,14.40
2017-10-10T08:35:02.647Z,14.40
2017-10-10T08:37:28.798Z,14.40
2017-10-10T08:39:57.048Z,14.50
2017-10-10T08:42:23.195Z,14.40
2017-10-10T08:44:49.369Z,14.50
2017-10-10T08:47:21.062Z,14.80
2017-10-10T08:49:47.441Z,14.60
2017-10-10T08:52:13.789Z,14.70
2017-10-10T08:54:40.145Z,14.60
2017-10-10T08:57:06.462Z,14.60
2017-10-10T08:59:32.841Z,14.70
2017-10-10T09:02:02.263Z,14.80
2017-10-10T09:04:28.681Z,14.80
2017-10-10T09:06:54.999Z,15.00
2017-10-10T09:09:21.346Z,14.80
2017-10-10T09:11:48.437Z,15.00
2017-10-10T09:14:14.764Z,15.20
2017-10-10T09:16:41.097Z,15.20
2017-10-10T09:19:12.462Z,15.00
2017-10-10T09:21:38.774Z,15.20
2017-10-10T09:24:05.079Z,15.10
2017-10-10T09:26:31.378Z,15.10
2017-10-10T09:28:57.685Z,15.10
2017-10-10T09:31:24.027Z,15.10
2017-10-10T09:33:53.146Z,14.70
2017-10-10T09:36:20.011Z,15.20
2017-10-10T09:38:46.329Z,15.20
2017-10-10T09:41:12.671Z,15.20
2017-10-10T09:43:38.974Z,15.40
2017-10-10T09:46:05.285Z,15.10
2017-10-10T09:48:31.602Z,15.20
2017-10-10T09:50:57.967Z,15.20
2017-10-10T09:55:56.377Z,15.40
2017-10-10T09:58:22.710Z,15.50
2017-10-10T10:00:49.028Z,15.60
2017-10-10T10:03:15.365Z,15.70
2017-10-10T10:05:41.691Z,15.90
2017-10-10T10:08:08.831Z,15.60
2017-10-10T10:10:35.166Z,15.60
2017-10-10T10:13:05.674Z,15.60
2017-10-10T10:15:32.019Z,15.60
2017-10-10T10:17:58.336Z,15.60
2017-10-10T10:20:25.627Z,15.60
2017-10-10T10:22:51.949Z,15.60
2017-10-10T10:25:18.307Z,15.60
2017-10-10T10:27:44.637Z,15.30
2017-10-10T10:30:10.970Z,15.70
2017-10-10T10:32:40.595Z,16.20
2017-10-10T10:35:06.971Z,15.90
2017-10-10T10:37:33.337Z,16.40
2017-10-10T10:39:59.668Z,15.80
2017-10-10T10:42:26.722Z,15.70
2017-10-10T10:44:53.796Z,15.60
2017-10-10T10:47:20.126Z,15.60
2017-10-10T10:49:47.187Z,15.70
2017-10-10T10:52:13.528Z,15.70
2017-10-10T10:54:39.870Z,15.80
2017-10-10T10:57:06.954Z,15.90
2017-10-10T10:59:33.274Z,15.70
2017-10-10T11:02:00.325Z,15.90
2017-10-10T11:04:27.394Z,15.90
2017-10-10T11:06:53.722Z,15.90
2017-10-10T11:09:20.779Z,16.20
2017-10-10T11:11:47.864Z,16.20
2017-10-10T11:14:14.198Z,16.20
2017-10-10T11:16:41.247Z,16.20
2017-10-10T11:19:08.309Z,16.50
2017-10-10T11:21:34.684Z,16.40
2017-10-10T11:24:01.001Z,16.40
2017-10-10T11:26:27.312Z,16.50
2017-10-10T11:28:53.640Z,16.50
2017-10-10T11:31:20.760Z,16.50
2017-10-10T11:33:47.088Z,16.50
2017-10-10T11:36:13.393Z,16.40
2017-10-10T11:38:39.788Z,16.40
2017-10-10T11:41:09.034Z,16.80
2017-10-10T11:43:35.366Z,16.40
2017-10-10T11:46:01.703Z,16.60
2017-10-10T11:48:28.017Z,16.70
2017-10-10T11:50:54.337Z,17.00
2017-10-10T11:53:20.652Z,16.60
2017-10-10T11:55:46.982Z,16.60
2017-10-10T11:58:17.511Z,16.50
2017-10-10T12:00:44.578Z,16.40
2017-10-10T12:03:11.637Z,16.20
2017-10-10T12:05:37.964Z,16.20
2017-10-10T12:08:04.284Z,16.30
2017-10-10T12:10:30.591Z,16.30
2017-10-10T12:12:56.941Z,16.30
2017-10-10T12:15:29.135Z,16.30
2017-10-10T12:17:55.265Z,16.30
2017-10-10T12:20:22.146Z,16.40
2017-10-10T12:22:49.561Z,16.50
2017-10-10T12:25:15.718Z,16.50
2017-10-10T12:27:41.862Z,16.60
2017-10-10T12:30:08.762Z,16.60
2017-10-10T12:32:38.643Z,16.70
2017-10-10T12:35:04.768Z,16.60
2017-10-10T12:37:31.059Z,16.80
2017-10-10T12:39:57.224Z,16.50
2017-10-10T12:42:23.358Z,16.60
2017-10-10T12:44:49.473Z,16.60
2017-10-10T12:47:15.608Z,16.70
2017-10-10T12:49:41.738Z,16.80
2017-10-10T12:52:14.476Z,16.60
2017-10-10T12:54:40.629Z,16.40
2017-10-10T12:57:06.770Z,16.30
2017-10-10T12:59:34.694Z,16.60
2017-10-10T13:02:01.597Z,16.50
2017-10-10T13:04:27.759Z,16.90
2017-10-10T13:06:53.918Z,16.60
2017-10-10T13:09:20.042Z,16.40
2017-10-10T13:11:49.463Z,16.50
2017-10-10T13:14:16.351Z,16.50
2017-10-10T13:16:43.245Z,16.50
2017-10-10T13:19:09.398Z,16.50
2017-10-10T13:21:35.509Z,16.50
2017-10-10T13:24:01.685Z,16.50
2017-10-10T13:26:27.861Z,16.40
2017-10-10T13:28:54.744Z,16.30
2017-10-10T13:31:23.994Z,16.30
2017-10-10T13:33:51.513Z,16.40
2017-10-10T13:36:17.662Z,16.40
2017-10-10T13:38:44.562Z,16.60
2017-10-10T13:41:10.815Z,16.40
2017-10-10T13:43:37.737Z,16.50
2017-10-10T13:46:04.642Z,16.40
2017-10-10T13:48:30.785Z,16.80
2017-10-10T13:50:58.885Z,16.40
2017-10-10T13:53:25.110Z,16.40
2017-10-10T13:55:51.245Z,16.50
2017-10-10T13:58:18.131Z,16.30
2017-10-10T14:00:44.269Z,16.40
2017-10-10T14:03:10.425Z,16.30
2017-10-10T14:05:36.718Z,16.20
2017-10-10T14:08:03.010Z,16.20
2017-10-10T14:10:30.706Z,15.90
2017-10-10T14:12:56.830Z,16.20
2017-10-10T14:15:23.017Z,16.20
2017-10-10T14:17:49.140Z,16.40
2017-10-10T14:20:15.307Z,16.10
2017-10-10T14:22:41.438Z,16.10
2017-10-10T14:25:08.371Z,16.00
2017-10-10T14:27:34.738Z,16.40
2017-10-10T14:30:00.890Z,15.90
2017-10-10T14:32:32.795Z,15.90
2017-10-10T14:34:58.929Z,15.70
2017-10-10T14:37:25.078Z,15.90
2017-10-10T14:39:51.214Z,16.10
2017-10-10T14:42:17.364Z,16.00
2017-10-10T14:44:43.558Z,16.00
2017-10-10T14:47:09.731Z,16.00
2017-10-10T14:49:43.270Z,15.80
2017-10-10T14:52:10.191Z,15.70
2017-10-10T14:54:36.925Z,15.70
2017-10-10T14:57:05.203Z,15.70
2017-10-10T14:59:33.111Z,15.70
2017-10-10T15:02:02.556Z,15.60
2017-10-10T15:04:30.451Z,15.90
2017-10-10T15:06:56.674Z,15.80
2017-10-10T15:09:25.729Z,15.80
2017-10-10T15:11:51.878Z,15.30
2017-10-10T15:14:20.442Z,16.00
2017-10-10T15:16:46.646Z,15.50
2017-10-10T15:19:13.577Z,15.50
2017-10-10T15:21:39.741Z,15.50
2017-10-10T15:24:05.921Z,15.50
2017-10-10T15:26:32.279Z,15.50
2017-10-10T15:29:04.492Z,15.50
2017-10-10T15:31:30.647Z,15.30
2017-10-10T15:33:56.778Z,15.40
2017-10-10T15:36:25.624Z,15.50
2017-10-10T15:38:51.820Z,15.20
2017-10-10T15:41:17.979Z,15.40
2017-10-10T15:43:44.135Z,15.40
2017-10-10T15:46:10.293Z,15.40
2017-10-10T15:48:36.457Z,15.40
2017-10-10T15:51:04.853Z,15.20
2017-10-10T15:53:31.043Z,15.20
2017-10-10T15:55:57.222Z,15.30
2017-10-10T15:58:23.410Z,15.50
2017-10-10T16:00:50.322Z,15.20
2017-10-10T16:03:16.491Z,15.20
2017-10-10T16:05:42.643Z,15.20
2017-10-10T16:08:08.802Z,15.10
2017-10-10T16:10:34.954Z,15.20
2017-10-10T16:13:01.132Z,15.10
2017-10-10T16:15:32.597Z,15.00
2017-10-10T16:17:58.869Z,15.10
2017-10-10T16:20:25.018Z,15.30
2017-10-10T16:22:51.902Z,15.20
2017-10-10T16:25:18.842Z,15.20
2017-10-10T16:27:44.957Z,15.20
2017-10-10T16:30:11.437Z,15.20
2017-10-10T16:32:38.351Z,15.30
2017-10-10T16:35:05.096Z,15.20
2017-10-10T16:37:31.286Z,15.20
2017-10-10T16:39:57.490Z,15.30
2017-10-10T16:42:23.685Z,15.40
2017-10-10T16:44:50.204Z,15.20
2017-10-10T16:47:16.351Z,15.20
2017-10-10T16:49:42.477Z,15.10
2017-10-10T16:52:08.613Z,15.10
2017-10-10T16:54:34.875Z,15.40
2017-10-10T16:57:01.009Z,15.00
2017-10-10T16:59:27.126Z,14.90
2017-10-10T17:01:53.234Z,14.90
2017-10-10T17:04:19.579Z,14.80
2017-10-10T17:06:45.705Z,14.90
2017-10-10T17:09:11.827Z,15.00
2017-10-10T17:11:37.989Z,15.10
2017-10-10T17:14:04.182Z,15.20
2017-10-10T17:16:31.030Z,15.00
2017-10-10T17:18:57.178Z,15.00
2017-10-10T17:21:24.107Z,15.20
2017-10-10T17:23:50.286Z,15.20
2017-10-10T17:26:16.445Z,15.10
2017-10-10T17:28:42.554Z,15.10
2017-10-10T17:31:08.801Z,15.10
2017-10-10T17:33:34.960Z,15.10
2017-10-10T17:36:01.086Z,15.00
2017-10-10T17:38:29.674Z,15.00
2017-10-10T17:40:56.635Z,15.20
2017-10-10T17:43:25.261Z,15.10
2017-10-10T17:45:52.183Z,15.00
2017-10-10T17:48:18.331Z,15.00
2017-10-10T17:50:45.257Z,15.00
2017-10-10T17:53:11.508Z,15.00
2017-10-10T17:55:37.673Z,15.00
2017-10-10T17:58:04.043Z,15.00
2017-10-10T18:00:30.220Z,15.00
2017-10-10T18:02:56.379Z,14.90
2017-10-10T18:05:22.536Z,15.00
2017-10-10T18:07:48.673Z,15.10
2017-10-10T18:10:15.438Z,15.10
2017-10-10T18:12:41.590Z,15.10
2017-10-10T18:15:07.737Z,15.00
2017-10-10T18:17:33.860Z,15.60
2017-10-10T18:20:00.010Z,15.10
2017-10-10T18:22:26.185Z,14.80
2017-10-10T18:24:53.113Z,15.10
2017-10-10T18:27:19.274Z,15.00
2017-10-10T18:29:45.407Z,15.20
2017-10-10T18:32:11.547Z,15.20
2017-10-10T18:34:39.785Z,15.20
2017-10-10T18:37:05.932Z,15.20
2017-10-10T18:39:32.886Z,15.20
2017-10-10T18:41:59.189Z,15.20
2017-10-10T18:44:25.479Z,15.20
2017-10-10T18:46:51.640Z,15.30
2017-10-10T18:49:17.806Z,15.20
2017-10-10T18:51:44.761Z,15.10
2017-10-10T18:54:12.190Z,15.10
2017-10-10T18:56:38.341Z,15.00
2017-10-10T18:59:04.986Z,15.10
2017-10-10T19:01:31.872Z,15.10
2017-10-10T19:03:57.997Z,15.10
2017-10-10T19:06:24.922Z,15.30
2017-10-10T19:08:51.049Z,15.30
2017-10-10T19:11:17.205Z,15.00
2017-10-10T19:13:43.795Z,15.20
2017-10-10T19:16:10.019Z,15.30
2017-10-10T19:18:37.885Z,15.30
2017-10-10T19:21:04.137Z,15.30
2017-10-10T19:23:31.137Z,15.40
2017-10-10T19:25:58.284Z,15.40
2017-10-10T19:28:26.566Z,15.40
2017-10-10T19:30:52.736Z,15.40
2017-10-10T19:33:19.076Z,15.40
2017-10-10T19:35:46.312Z,15.40
2017-10-10T19:38:12.530Z,15.30
2017-10-10T19:40:39.422Z,15.30
2017-10-10T19:43:05.591Z,15.30
2017-10-10T19:45:31.732Z,15.20
2017-10-10T19:47:57.954Z,15.30
2017-10-10T19:50:24.093Z,15.30
2017-10-10T19:52:50.282Z,15.50
2017-10-10T19:55:16.589Z,15.40
2017-10-10T19:57:42.748Z,15.50
2017-10-10T20:00:08.897Z,15.40
2017-10-10T20:02:35.025Z,15.40
2017-10-10T20:05:01.304Z,15.40
2017-10-10T20:07:28.173Z,15.50
2017-10-10T20:09:54.322Z,15.70
2017-10-10T20:12:20.449Z,15.30
2017-10-10T20:14:46.597Z,15.20
2017-10-10T20:17:12.765Z,15.30
2017-10-10T20:19:38.910Z,15.50
2017-10-10T20:22:05.681Z,15.10
2017-10-10T20:24:31.858Z,15.30
2017-10-10T20:27:02.670Z,15.30
2017-10-10T20:29:34.377Z,15.30
2017-10-10T20:32:00.710Z,15.40
2017-10-10T20:34:27.050Z,15.50
2017-10-10T20:36:53.412Z,15.40
2017-10-10T20:39:19.762Z,15.50
2017-10-10T20:41:46.106Z,15.30
2017-10-10T20:44:12.574Z,15.20
2017-10-10T20:46:42.216Z,15.30
2017-10-10T20:49:08.547Z,15.50
2017-10-10T20:51:34.921Z,16.10
2017-10-10T20:54:01.269Z,15.40
2017-10-10T20:56:27.613Z,15.40
2017-10-10T20:58:53.963Z,15.30
2017-10-10T21:01:24.661Z,15.10
2017-10-10T21:03:51.758Z,15.30
2017-10-10T21:06:18.214Z,15.00
2017-10-10T21:08:44.553Z,15.20
2017-10-10T21:11:11.825Z,15.30
2017-10-10T21:13:38.180Z,15.30
2017-10-10T21:16:05.684Z,15.30
2017-10-10T21:18:32.019Z,15.30
2017-10-10T21:20:58.350Z,15.40
2017-10-10T21:23:24.678Z,15.70
2017-10-10T21:25:51.027Z,15.40
2017-10-10T21:28:17.718Z,15.90
2017-10-10T21:30:44.792Z,15.40
2017-10-10T21:33:13.362Z,15.40
2017-10-10T21:35:39.747Z,15.40
2017-10-10T21:38:06.877Z,15.50
2017-10-10T21:40:33.252Z,15.40
2017-10-10T21:42:59.807Z,15.60
2017-10-10T21:45:26.220Z,15.90
2017-10-10T21:47:52.532Z,15.50
2017-10-10T21:50:19.576Z,15.40
2017-10-10T21:52:45.892Z,15.60
2017-10-10T21:55:12.246Z,15.50
2017-10-10T21:57:38.596Z,15.50
2017-10-10T22:00:04.966Z,15.30
2017-10-10T22:02:31.330Z,15.60
2017-10-10T22:04:57.677Z,15.70
2017-10-10T22:07:24.096Z,15.40
2017-10-10T22:09:50.474Z,15.30
2017-10-10T22:12:16.854Z,15.10
2017-10-10T22:14:43.230Z,15.50
2017-10-10T22:17:09.582Z,15.30
2017-10-10T22:19:35.954Z,15.30
2017-10-10T22:22:02.302Z,15.30
2017-10-10T22:24:28.661Z,15.30
2017-10-10T22:26:55.019Z,15.20
2017-10-10T22:29:21.361Z,15.40
2017-10-10T22:31:47.721Z,15.20
2017-10-10T22:34:14.055Z,15.20
2017-10-10T22:36:43.102Z,15.20
2017-10-10T22:39:09.450Z,15.20
2017-10-10T22:41:36.945Z,15.20
2017-10-10T22:44:03.264Z,15.30
2017-10-10T22:46:29.614Z,15.20
2017-10-10T22:48:56.001Z,15.40
2017-10-10T22:51:22.352Z,15.10
2017-10-10T22:53:48.718Z,15.10
2017-10-10T22:56:15.078Z,15.10
2017-10-10T22:58:41.408Z,15.10
2017-10-10T23:01:07.789Z,15.00
2017-10-10T23:03:34.143Z,15.30
2017-10-10T23:06:00.472Z,15.20
2017-10-10T23:08:27.589Z,15.20
2017-10-10T23:10:53.900Z,15.30
2017-10-10T23:13:20.381Z,15.30
2017-10-10T23:15:47.493Z,15.20
2017-10-10T23:18:13.833Z,15.20
2017-10-10T23:20:40.186Z,15.20
2017-10-10T23:23:06.509Z,15.10
2017-10-10T23:25:32.822Z,15.20
2017-10-10T23:28:00.611Z,15.20
2017-10-10T23:30:26.933Z,15.20
2017-10-10T23:32:53.244Z,15.60
2017-10-10T23:35:19.599Z,15.20
2017-10-10T23:37:46.380Z,15.20
2017-10-10T23:40:12.790Z,15.20
2017-10-10T23:42:40.348Z,15.20
2017-10-10T23:45:08.254Z,15.20
2017-10-10T23:47:35.297Z,15.00
2017-10-10T23:50:01.638Z,15.00
2017-10-10T23:52:27.961Z,15.70
2017-10-10T23:54:54.305Z,15.00
2017-10-10T23:57:20.637Z,15.10
2017-10-10T23:59:47.681Z,15.00
